Terminal Aerodrome Forecast
Issued by NWS Pittsburgh, PA

Current Version | Previous Version | Graphics & Text | Print | Product List | Glossary On
Versions: 1 2 3 4 5 6 7 8 9 10 11 12 13 14 15 16 17 18 19 20 21 22 23 24 25 26 27 28 29 30
000
FTUS41 KPBZ 312100 AAA
TAFPIT
TAF AMD
KPIT 312103Z 3121/0124 24009KT P6SM FEW045 SCT070
     FM010600 VRB03KT 5SM BR SKC
     FM011400 20005KT P6SM BKN080=

USA.gov is the U.S. government's official web portal to all federal, state and local government web resources and services.